sensor_id;sensor_type;location;lat;lon;timestamp;P1;durP1;ratioP1;P2;durP2;ratioP2
64063;SDS011;50314;50.618;10.642;2022-12-18T00:01:04;7.22;;;5.60;;
64063;SDS011;50314;50.618;10.642;2022-12-18T00:03:34;7.55;;;5.65;;
64063;SDS011;50314;50.618;10.642;2022-12-18T00:06:01;7.00;;;6.00;;
64063;SDS011;50314;50.618;10.642;2022-12-18T00:08:27;9.05;;;6.07;;
64063;SDS011;50314;50.618;10.642;2022-12-18T00:10:53;6.80;;;5.65;;
64063;SDS011;50314;50.618;10.642;2022-12-18T00:13:19;6.75;;;5.55;;
64063;SDS011;50314;50.618;10.642;2022-12-18T00:15:44;7.53;;;5.80;;
64063;SDS011;50314;50.618;10.642;2022-12-18T00:18:09;7.05;;;5.35;;
64063;SDS011;50314;50.618;10.642;2022-12-18T00:20:36;6.78;;;5.03;;
64063;SDS011;50314;50.618;10.642;2022-12-18T00:23:03;6.68;;;5.38;;
64063;SDS011;50314;50.618;10.642;2022-12-18T00:25:29;7.95;;;5.68;;
64063;SDS011;50314;50.618;10.642;2022-12-18T00:27:57;7.15;;;5.30;;
64063;SDS011;50314;50.618;10.642;2022-12-18T00:30:22;6.45;;;4.75;;
64063;SDS011;50314;50.618;10.642;2022-12-18T00:32:50;7.47;;;5.32;;
64063;SDS011;50314;50.618;10.642;2022-12-18T00:35:15;6.93;;;4.93;;
64063;SDS011;50314;50.618;10.642;2022-12-18T00:37:41;6.05;;;4.80;;
64063;SDS011;50314;50.618;10.642;2022-12-18T00:40:07;6.03;;;4.90;;
64063;SDS011;50314;50.618;10.642;2022-12-18T00:42:35;5.63;;;4.47;;
64063;SDS011;50314;50.618;10.642;2022-12-18T00:45:19;5.93;;;4.50;;
64063;SDS011;50314;50.618;10.642;2022-12-18T00:47:45;6.13;;;4.75;;
64063;SDS011;50314;50.618;10.642;2022-12-18T00:50:11;6.70;;;4.43;;
64063;SDS011;50314;50.618;10.642;2022-12-18T00:52:39;6.55;;;4.43;;
64063;SDS011;50314;50.618;10.642;2022-12-18T00:55:04;7.35;;;5.00;;
64063;SDS011;50314;50.618;10.642;2022-12-18T00:57:30;6.55;;;4.63;;
64063;SDS011;50314;50.618;10.642;2022-12-18T00:59:56;7.18;;;4.63;;
64063;SDS011;50314;50.618;10.642;2022-12-18T01:02:21;6.20;;;4.80;;
64063;SDS011;50314;50.618;10.642;2022-12-18T01:04:46;6.45;;;4.28;;
64063;SDS011;50314;50.618;10.642;2022-12-18T01:07:12;5.93;;;4.15;;
64063;SDS011;50314;50.618;10.642;2022-12-18T01:09:37;6.35;;;4.45;;
64063;SDS011;50314;50.618;10.642;2022-12-18T01:12:03;6.70;;;4.53;;
64063;SDS011;50314;50.618;10.642;2022-12-18T01:14:28;6.57;;;4.40;;
64063;SDS011;50314;50.618;10.642;2022-12-18T01:16:54;5.82;;;4.30;;
64063;SDS011;50314;50.618;10.642;2022-12-18T01:19:19;5.65;;;4.10;;
64063;SDS011;50314;50.618;10.642;2022-12-18T01:21:45;5.68;;;3.83;;
64063;SDS011;50314;50.618;10.642;2022-12-18T01:24:11;5.32;;;4.03;;
64063;SDS011;50314;50.618;10.642;2022-12-18T01:26:36;5.28;;;4.07;;
64063;SDS011;50314;50.618;10.642;2022-12-18T01:29:02;5.63;;;3.60;;
64063;SDS011;50314;50.618;10.642;2022-12-18T01:31:29;5.80;;;4.40;;
64063;SDS011;50314;50.618;10.642;2022-12-18T01:33:59;6.93;;;4.40;;
64063;SDS011;50314;50.618;10.642;2022-12-18T01:36:31;6.80;;;4.25;;
64063;SDS011;50314;50.618;10.642;2022-12-18T01:39:02;6.13;;;3.72;;
64063;SDS011;50314;50.618;10.642;2022-12-18T01:41:29;5.82;;;3.70;;
64063;SDS011;50314;50.618;10.642;2022-12-18T01:47:26;5.13;;;3.75;;
64063;SDS011;50314;50.618;10.642;2022-12-18T01:50:01;4.90;;;3.63;;
64063;SDS011;50314;50.618;10.642;2022-12-18T01:52:31;5.57;;;3.88;;
64063;SDS011;50314;50.618;10.642;2022-12-18T01:54:57;5.70;;;3.10;;
64063;SDS011;50314;50.618;10.642;2022-12-18T01:57:25;5.57;;;3.55;;
64063;SDS011;50314;50.618;10.642;2022-12-18T01:59:52;5.40;;;3.75;;
64063;SDS011;50314;50.618;10.642;2022-12-18T02:02:21;4.95;;;3.42;;
64063;SDS011;50314;50.618;10.642;2022-12-18T02:04:47;4.63;;;3.40;;
64063;SDS011;50314;50.618;10.642;2022-12-18T02:07:17;5.00;;;3.30;;
64063;SDS011;50314;50.618;10.642;2022-12-18T02:12:19;5.05;;;3.05;;
64063;SDS011;50314;50.618;10.642;2022-12-18T02:17:32;5.85;;;3.72;;
64063;SDS011;50314;50.618;10.642;2022-12-18T02:20:21;4.93;;;3.13;;
64063;SDS011;50314;50.618;10.642;2022-12-18T02:28:30;5.55;;;3.63;;
64063;SDS011;50314;50.618;10.642;2022-12-18T02:30:59;4.65;;;3.03;;
64063;SDS011;50314;50.618;10.642;2022-12-18T02:33:28;5.18;;;3.33;;
64063;SDS011;50314;50.618;10.642;2022-12-18T02:35:55;5.28;;;3.42;;
64063;SDS011;50314;50.618;10.642;2022-12-18T02:38:24;5.03;;;3.15;;
64063;SDS011;50314;50.618;10.642;2022-12-18T02:40:50;4.82;;;3.00;;
64063;SDS011;50314;50.618;10.642;2022-12-18T02:43:18;4.97;;;3.15;;
64063;SDS011;50314;50.618;10.642;2022-12-18T02:45:52;4.13;;;3.10;;
64063;SDS011;50314;50.618;10.642;2022-12-18T02:48:24;5.95;;;3.42;;
64063;SDS011;50314;50.618;10.642;2022-12-18T02:51:07;4.78;;;3.03;;
64063;SDS011;50314;50.618;10.642;2022-12-18T02:53:43;4.55;;;3.20;;
64063;SDS011;50314;50.618;10.642;2022-12-18T02:56:24;3.85;;;2.63;;
64063;SDS011;50314;50.618;10.642;2022-12-18T02:58:59;4.35;;;2.55;;
64063;SDS011;50314;50.618;10.642;2022-12-18T03:01:33;5.18;;;3.00;;
64063;SDS011;50314;50.618;10.642;2022-12-18T03:04:20;2.97;;;2.47;;
64063;SDS011;50314;50.618;10.642;2022-12-18T03:06:55;3.65;;;2.45;;
64063;SDS011;50314;50.618;10.642;2022-12-18T03:09:26;4.68;;;2.45;;
64063;SDS011;50314;50.618;10.642;2022-12-18T03:12:00;4.20;;;2.92;;
64063;SDS011;50314;50.618;10.642;2022-12-18T03:15:01;3.97;;;2.47;;
64063;SDS011;50314;50.618;10.642;2022-12-18T03:17:30;3.67;;;2.60;;
64063;SDS011;50314;50.618;10.642;2022-12-18T03:19:58;3.72;;;2.22;;
64063;SDS011;50314;50.618;10.642;2022-12-18T03:22:28;5.05;;;2.70;;
64063;SDS011;50314;50.618;10.642;2022-12-18T03:24:57;5.18;;;3.25;;
64063;SDS011;50314;50.618;10.642;2022-12-18T03:27:25;3.80;;;2.38;;
64063;SDS011;50314;50.618;10.642;2022-12-18T03:29:55;3.80;;;2.33;;
64063;SDS011;50314;50.618;10.642;2022-12-18T03:32:33;4.72;;;2.53;;
64063;SDS011;50314;50.618;10.642;2022-12-18T03:35:06;4.43;;;2.90;;
64063;SDS011;50314;50.618;10.642;2022-12-18T03:37:34;3.75;;;2.63;;
64063;SDS011;50314;50.618;10.642;2022-12-18T03:40:00;4.00;;;2.50;;
64063;SDS011;50314;50.618;10.642;2022-12-18T03:42:28;4.65;;;2.58;;
64063;SDS011;50314;50.618;10.642;2022-12-18T03:45:11;3.92;;;2.35;;
64063;SDS011;50314;50.618;10.642;2022-12-18T03:47:39;3.65;;;2.65;;
64063;SDS011;50314;50.618;10.642;2022-12-18T03:50:24;3.78;;;2.67;;
64063;SDS011;50314;50.618;10.642;2022-12-18T03:52:54;3.53;;;2.30;;
64063;SDS011;50314;50.618;10.642;2022-12-18T03:55:30;4.15;;;2.70;;
64063;SDS011;50314;50.618;10.642;2022-12-18T03:57:59;4.15;;;2.10;;
64063;SDS011;50314;50.618;10.642;2022-12-18T04:00:28;3.67;;;2.53;;
64063;SDS011;50314;50.618;10.642;2022-12-18T04:02:55;3.17;;;2.05;;
64063;SDS011;50314;50.618;10.642;2022-12-18T04:05:25;4.07;;;2.42;;
64063;SDS011;50314;50.618;10.642;2022-12-18T04:07:53;3.83;;;2.38;;
64063;SDS011;50314;50.618;10.642;2022-12-18T04:10:20;3.05;;;2.10;;
64063;SDS011;50314;50.618;10.642;2022-12-18T04:12:46;3.25;;;1.67;;
64063;SDS011;50314;50.618;10.642;2022-12-18T04:15:12;4.32;;;2.22;;
64063;SDS011;50314;50.618;10.642;2022-12-18T04:17:38;3.50;;;2.40;;
64063;SDS011;50314;50.618;10.642;2022-12-18T04:22:37;2.83;;;1.90;;
64063;SDS011;50314;50.618;10.642;2022-12-18T04:25:03;3.45;;;2.20;;
64063;SDS011;50314;50.618;10.642;2022-12-18T04:27:28;3.60;;;2.25;;
64063;SDS011;50314;50.618;10.642;2022-12-18T04:29:54;2.70;;;1.95;;
64063;SDS011;50314;50.618;10.642;2022-12-18T04:32:19;3.03;;;2.00;;
64063;SDS011;50314;50.618;10.642;2022-12-18T04:34:45;3.65;;;1.98;;
64063;SDS011;50314;50.618;10.642;2022-12-18T04:37:10;3.67;;;2.13;;
64063;SDS011;50314;50.618;10.642;2022-12-18T04:39:36;2.58;;;2.20;;
64063;SDS011;50314;50.618;10.642;2022-12-18T04:42:01;2.53;;;1.90;;
64063;SDS011;50314;50.618;10.642;2022-12-18T04:44:27;2.53;;;2.03;;
64063;SDS011;50314;50.618;10.642;2022-12-18T04:46:53;5.20;;;2.50;;
64063;SDS011;50314;50.618;10.642;2022-12-18T04:49:18;4.22;;;1.90;;
64063;SDS011;50314;50.618;10.642;2022-12-18T04:51:44;3.38;;;2.00;;
64063;SDS011;50314;50.618;10.642;2022-12-18T04:54:09;4.35;;;2.15;;
64063;SDS011;50314;50.618;10.642;2022-12-18T04:56:34;2.30;;;1.60;;
64063;SDS011;50314;50.618;10.642;2022-12-18T04:59:00;4.53;;;2.00;;
64063;SDS011;50314;50.618;10.642;2022-12-18T05:01:25;3.05;;;1.40;;
64063;SDS011;50314;50.618;10.642;2022-12-18T05:03:51;2.90;;;1.90;;
64063;SDS011;50314;50.618;10.642;2022-12-18T05:06:16;3.88;;;2.00;;
64063;SDS011;50314;50.618;10.642;2022-12-18T05:08:42;2.08;;;1.80;;
64063;SDS011;50314;50.618;10.642;2022-12-18T05:11:08;3.13;;;2.03;;
64063;SDS011;50314;50.618;10.642;2022-12-18T05:13:36;3.25;;;1.67;;
64063;SDS011;50314;50.618;10.642;2022-12-18T05:16:02;3.30;;;2.08;;
64063;SDS011;50314;50.618;10.642;2022-12-18T05:18:29;3.05;;;2.25;;
64063;SDS011;50314;50.618;10.642;2022-12-18T05:20:54;2.47;;;1.90;;
64063;SDS011;50314;50.618;10.642;2022-12-18T05:23:21;3.65;;;2.13;;
64063;SDS011;50314;50.618;10.642;2022-12-18T05:25:51;2.75;;;1.92;;
64063;SDS011;50314;50.618;10.642;2022-12-18T05:28:17;2.67;;;1.73;;
64063;SDS011;50314;50.618;10.642;2022-12-18T05:30:47;2.47;;;1.67;;
64063;SDS011;50314;50.618;10.642;2022-12-18T05:33:14;2.25;;;1.83;;
64063;SDS011;50314;50.618;10.642;2022-12-18T05:35:40;2.65;;;1.48;;
64063;SDS011;50314;50.618;10.642;2022-12-18T05:38:05;2.97;;;1.95;;
64063;SDS011;50314;50.618;10.642;2022-12-18T05:40:30;3.53;;;1.75;;
64063;SDS011;50314;50.618;10.642;2022-12-18T05:42:56;3.25;;;1.90;;
64063;SDS011;50314;50.618;10.642;2022-12-18T05:45:21;2.65;;;1.80;;
64063;SDS011;50314;50.618;10.642;2022-12-18T05:47:47;3.55;;;2.17;;
64063;SDS011;50314;50.618;10.642;2022-12-18T05:50:12;2.72;;;1.90;;
64063;SDS011;50314;50.618;10.642;2022-12-18T05:52:38;2.67;;;1.90;;
64063;SDS011;50314;50.618;10.642;2022-12-18T05:55:03;3.53;;;1.98;;
64063;SDS011;50314;50.618;10.642;2022-12-18T05:57:29;3.00;;;2.63;;
64063;SDS011;50314;50.618;10.642;2022-12-18T05:59:55;2.42;;;1.73;;
64063;SDS011;50314;50.618;10.642;2022-12-18T06:02:20;3.13;;;1.90;;
64063;SDS011;50314;50.618;10.642;2022-12-18T06:04:46;3.70;;;2.00;;
64063;SDS011;50314;50.618;10.642;2022-12-18T06:07:12;3.03;;;2.10;;
64063;SDS011;50314;50.618;10.642;2022-12-18T06:09:37;2.90;;;1.90;;
64063;SDS011;50314;50.618;10.642;2022-12-18T06:12:03;2.28;;;1.88;;
64063;SDS011;50314;50.618;10.642;2022-12-18T06:14:29;3.08;;;1.92;;
64063;SDS011;50314;50.618;10.642;2022-12-18T06:16:54;2.10;;;1.83;;
64063;SDS011;50314;50.618;10.642;2022-12-18T06:19:19;3.47;;;2.20;;
64063;SDS011;50314;50.618;10.642;2022-12-18T06:21:45;3.35;;;2.00;;
64063;SDS011;50314;50.618;10.642;2022-12-18T06:24:10;3.05;;;1.85;;
64063;SDS011;50314;50.618;10.642;2022-12-18T06:26:37;2.35;;;1.83;;
64063;SDS011;50314;50.618;10.642;2022-12-18T06:29:03;2.55;;;1.80;;
64063;SDS011;50314;50.618;10.642;2022-12-18T06:31:29;2.85;;;2.28;;
64063;SDS011;50314;50.618;10.642;2022-12-18T06:33:55;2.58;;;1.90;;
64063;SDS011;50314;50.618;10.642;2022-12-18T06:36:20;3.35;;;2.17;;
64063;SDS011;50314;50.618;10.642;2022-12-18T06:38:46;2.88;;;1.90;;
64063;SDS011;50314;50.618;10.642;2022-12-18T06:41:18;3.70;;;2.08;;
64063;SDS011;50314;50.618;10.642;2022-12-18T06:43:45;2.83;;;2.08;;
64063;SDS011;50314;50.618;10.642;2022-12-18T06:46:12;2.67;;;1.73;;
64063;SDS011;50314;50.618;10.642;2022-12-18T06:48:38;2.33;;;1.90;;
64063;SDS011;50314;50.618;10.642;2022-12-18T06:51:04;3.20;;;2.22;;
64063;SDS011;50314;50.618;10.642;2022-12-18T06:53:30;2.67;;;2.05;;
64063;SDS011;50314;50.618;10.642;2022-12-18T06:56:04;2.50;;;1.98;;
64063;SDS011;50314;50.618;10.642;2022-12-18T06:58:31;2.58;;;1.58;;
64063;SDS011;50314;50.618;10.642;2022-12-18T07:01:01;2.22;;;1.80;;
64063;SDS011;50314;50.618;10.642;2022-12-18T07:03:28;2.90;;;1.75;;
64063;SDS011;50314;50.618;10.642;2022-12-18T07:05:53;2.20;;;1.92;;
64063;SDS011;50314;50.618;10.642;2022-12-18T07:08:19;2.15;;;1.55;;
64063;SDS011;50314;50.618;10.642;2022-12-18T07:10:44;2.20;;;1.70;;
64063;SDS011;50314;50.618;10.642;2022-12-18T07:13:10;3.53;;;2.15;;
64063;SDS011;50314;50.618;10.642;2022-12-18T07:15:35;3.13;;;2.00;;
64063;SDS011;50314;50.618;10.642;2022-12-18T07:18:01;2.17;;;1.80;;
64063;SDS011;50314;50.618;10.642;2022-12-18T07:20:27;2.63;;;1.80;;
64063;SDS011;50314;50.618;10.642;2022-12-18T07:22:52;3.63;;;1.92;;
64063;SDS011;50314;50.618;10.642;2022-12-18T07:25:17;1.98;;;1.80;;
64063;SDS011;50314;50.618;10.642;2022-12-18T07:27:43;2.47;;;1.77;;
64063;SDS011;50314;50.618;10.642;2022-12-18T07:30:08;3.05;;;2.10;;
64063;SDS011;50314;50.618;10.642;2022-12-18T07:32:34;2.80;;;2.03;;
64063;SDS011;50314;50.618;10.642;2022-12-18T07:35:00;2.40;;;1.80;;
64063;SDS011;50314;50.618;10.642;2022-12-18T07:37:25;2.97;;;2.03;;
64063;SDS011;50314;50.618;10.642;2022-12-18T07:39:51;2.67;;;1.85;;
64063;SDS011;50314;50.618;10.642;2022-12-18T07:42:16;3.08;;;2.30;;
64063;SDS011;50314;50.618;10.642;2022-12-18T07:44:57;3.22;;;1.95;;
64063;SDS011;50314;50.618;10.642;2022-12-18T07:47:23;3.00;;;2.08;;
64063;SDS011;50314;50.618;10.642;2022-12-18T07:49:49;3.50;;;2.20;;
64063;SDS011;50314;50.618;10.642;2022-12-18T07:52:15;1.88;;;1.73;;
64063;SDS011;50314;50.618;10.642;2022-12-18T07:54:40;2.92;;;1.77;;
64063;SDS011;50314;50.618;10.642;2022-12-18T07:57:06;3.05;;;1.98;;
64063;SDS011;50314;50.618;10.642;2022-12-18T07:59:32;2.90;;;2.17;;
64063;SDS011;50314;50.618;10.642;2022-12-18T08:01:57;3.28;;;2.10;;
64063;SDS011;50314;50.618;10.642;2022-12-18T08:04:23;2.58;;;1.80;;
64063;SDS011;50314;50.618;10.642;2022-12-18T08:06:49;5.30;;;2.15;;
64063;SDS011;50314;50.618;10.642;2022-12-18T08:09:15;3.20;;;1.60;;
64063;SDS011;50314;50.618;10.642;2022-12-18T08:11:40;3.15;;;2.35;;
64063;SDS011;50314;50.618;10.642;2022-12-18T08:14:06;3.72;;;2.55;;
64063;SDS011;50314;50.618;10.642;2022-12-18T08:16:31;3.72;;;2.33;;
64063;SDS011;50314;50.618;10.642;2022-12-18T08:18:57;3.22;;;2.30;;
64063;SDS011;50314;50.618;10.642;2022-12-18T08:21:26;3.47;;;2.05;;
64063;SDS011;50314;50.618;10.642;2022-12-18T08:23:56;3.47;;;2.72;;
64063;SDS011;50314;50.618;10.642;2022-12-18T08:26:23;3.20;;;2.50;;
64063;SDS011;50314;50.618;10.642;2022-12-18T08:28:50;4.78;;;2.30;;
64063;SDS011;50314;50.618;10.642;2022-12-18T08:31:16;3.30;;;2.60;;
64063;SDS011;50314;50.618;10.642;2022-12-18T08:33:41;3.78;;;2.25;;
64063;SDS011;50314;50.618;10.642;2022-12-18T08:36:08;4.80;;;2.80;;
64063;SDS011;50314;50.618;10.642;2022-12-18T08:38:34;5.10;;;2.38;;
64063;SDS011;50314;50.618;10.642;2022-12-18T08:41:04;4.32;;;2.10;;
64063;SDS011;50314;50.618;10.642;2022-12-18T08:43:31;4.13;;;2.10;;
64063;SDS011;50314;50.618;10.642;2022-12-18T08:46:15;3.63;;;2.20;;
64063;SDS011;50314;50.618;10.642;2022-12-18T08:48:41;3.28;;;2.25;;
64063;SDS011;50314;50.618;10.642;2022-12-18T08:51:07;3.97;;;2.30;;
64063;SDS011;50314;50.618;10.642;2022-12-18T08:53:34;4.00;;;2.55;;
64063;SDS011;50314;50.618;10.642;2022-12-18T08:56:00;3.28;;;1.98;;
64063;SDS011;50314;50.618;10.642;2022-12-18T08:58:26;3.97;;;2.47;;
64063;SDS011;50314;50.618;10.642;2022-12-18T09:00:51;3.92;;;2.63;;
64063;SDS011;50314;50.618;10.642;2022-12-18T09:03:17;4.35;;;2.92;;
64063;SDS011;50314;50.618;10.642;2022-12-18T09:05:43;9.30;;;4.43;;
64063;SDS011;50314;50.618;10.642;2022-12-18T09:08:11;11.57;;;5.70;;
64063;SDS011;50314;50.618;10.642;2022-12-18T09:10:47;22.70;;;13.00;;
64063;SDS011;50314;50.618;10.642;2022-12-18T09:13:14;248.52;;;140.23;;
64063;SDS011;50314;50.618;10.642;2022-12-18T09:15:43;229.93;;;126.30;;
64063;SDS011;50314;50.618;10.642;2022-12-18T09:18:10;224.32;;;123.18;;
64063;SDS011;50314;50.618;10.642;2022-12-18T09:20:37;207.95;;;117.20;;
64063;SDS011;50314;50.618;10.642;2022-12-18T09:23:04;194.15;;;105.82;;
64063;SDS011;50314;50.618;10.642;2022-12-18T09:25:30;180.90;;;96.55;;
64063;SDS011;50314;50.618;10.642;2022-12-18T09:28:01;164.57;;;91.55;;
64063;SDS011;50314;50.618;10.642;2022-12-18T09:30:38;145.25;;;81.70;;
64063;SDS011;50314;50.618;10.642;2022-12-18T09:35:30;125.15;;;69.47;;
64063;SDS011;50314;50.618;10.642;2022-12-18T09:37:55;114.30;;;61.85;;
64063;SDS011;50314;50.618;10.642;2022-12-18T09:40:22;114.05;;;62.53;;
64063;SDS011;50314;50.618;10.642;2022-12-18T09:42:54;107.70;;;60.50;;
64063;SDS011;50314;50.618;10.642;2022-12-18T09:45:24;95.72;;;54.13;;
64063;SDS011;50314;50.618;10.642;2022-12-18T09:47:50;94.15;;;51.80;;
64063;SDS011;50314;50.618;10.642;2022-12-18T09:50:29;95.20;;;50.80;;
64063;SDS011;50314;50.618;10.642;2022-12-18T09:52:59;82.82;;;46.67;;
64063;SDS011;50314;50.618;10.642;2022-12-18T09:55:34;80.30;;;42.60;;
64063;SDS011;50314;50.618;10.642;2022-12-18T10:00:52;67.50;;;40.10;;
64063;SDS011;50314;50.618;10.642;2022-12-18T10:03:18;67.03;;;43.78;;
64063;SDS011;50314;50.618;10.642;2022-12-18T10:08:55;66.65;;;43.03;;
64063;SDS011;50314;50.618;10.642;2022-12-18T10:19:37;97.68;;;88.18;;
64063;SDS011;50314;50.618;10.642;2022-12-18T10:22:33;131.45;;;119.95;;
64063;SDS011;50314;50.618;10.642;2022-12-18T10:28:12;228.75;;;211.77;;
64063;SDS011;50314;50.618;10.642;2022-12-18T10:30:39;289.27;;;268.45;;
64063;SDS011;50314;50.618;10.642;2022-12-18T10:35:35;373.85;;;346.13;;
64063;SDS011;50314;50.618;10.642;2022-12-18T10:40:49;436.92;;;403.20;;
64063;SDS011;50314;50.618;10.642;2022-12-18T10:43:20;462.08;;;425.85;;
64063;SDS011;50314;50.618;10.642;2022-12-18T10:48:33;493.45;;;454.15;;
64063;SDS011;50314;50.618;10.642;2022-12-18T10:51:01;493.52;;;452.05;;
64063;SDS011;50314;50.618;10.642;2022-12-18T10:53:29;528.00;;;484.65;;
64063;SDS011;50314;50.618;10.642;2022-12-18T10:55:58;548.25;;;503.13;;
64063;SDS011;50314;50.618;10.642;2022-12-18T10:58:25;558.88;;;512.13;;
64063;SDS011;50314;50.618;10.642;2022-12-18T11:03:44;528.38;;;483.48;;
64063;SDS011;50314;50.618;10.642;2022-12-18T11:06:16;527.53;;;482.58;;
64063;SDS011;50314;50.618;10.642;2022-12-18T11:08:44;508.95;;;465.08;;
64063;SDS011;50314;50.618;10.642;2022-12-18T11:11:24;489.85;;;447.08;;
64063;SDS011;50314;50.618;10.642;2022-12-18T11:13:57;479.98;;;437.98;;
64063;SDS011;50314;50.618;10.642;2022-12-18T11:16:33;468.13;;;426.50;;
64063;SDS011;50314;50.618;10.642;2022-12-18T11:19:17;443.20;;;403.50;;
64063;SDS011;50314;50.618;10.642;2022-12-18T11:21:49;401.80;;;365.42;;
64063;SDS011;50314;50.618;10.642;2022-12-18T11:24:27;413.08;;;376.17;;
64063;SDS011;50314;50.618;10.642;2022-12-18T11:26:53;401.67;;;365.55;;
64063;SDS011;50314;50.618;10.642;2022-12-18T11:29:23;406.80;;;370.10;;
64063;SDS011;50314;50.618;10.642;2022-12-18T11:32:08;399.58;;;363.40;;
64063;SDS011;50314;50.618;10.642;2022-12-18T11:34:38;388.83;;;352.95;;
64063;SDS011;50314;50.618;10.642;2022-12-18T11:39:31;362.88;;;329.00;;
64063;SDS011;50314;50.618;10.642;2022-12-18T11:42:16;368.60;;;333.95;;
64063;SDS011;50314;50.618;10.642;2022-12-18T11:44:48;367.45;;;333.55;;
64063;SDS011;50314;50.618;10.642;2022-12-18T11:53:12;333.15;;;301.48;;
64063;SDS011;50314;50.618;10.642;2022-12-18T12:20:31;189.85;;;170.10;;
64063;SDS011;50314;50.618;10.642;2022-12-18T12:25:55;166.65;;;148.50;;
64063;SDS011;50314;50.618;10.642;2022-12-18T12:32:05;147.05;;;131.40;;
64063;SDS011;50314;50.618;10.642;2022-12-18T12:37:16;125.20;;;111.10;;
64063;SDS011;50314;50.618;10.642;2022-12-18T12:39:50;122.15;;;108.85;;
64063;SDS011;50314;50.618;10.642;2022-12-18T12:42:20;104.32;;;92.90;;
64063;SDS011;50314;50.618;10.642;2022-12-18T12:45:16;108.18;;;93.15;;
64063;SDS011;50314;50.618;10.642;2022-12-18T12:47:47;92.05;;;78.65;;
64063;SDS011;50314;50.618;10.642;2022-12-18T12:50:16;78.63;;;64.90;;
64063;SDS011;50314;50.618;10.642;2022-12-18T12:52:45;70.25;;;58.13;;
64063;SDS011;50314;50.618;10.642;2022-12-18T12:55:19;69.40;;;55.92;;
64063;SDS011;50314;50.618;10.642;2022-12-18T13:00:57;64.22;;;54.92;;
64063;SDS011;50314;50.618;10.642;2022-12-18T13:09:08;52.58;;;44.65;;
64063;SDS011;50314;50.618;10.642;2022-12-18T13:11:38;50.03;;;41.53;;
64063;SDS011;50314;50.618;10.642;2022-12-18T13:14:34;43.47;;;38.08;;
64063;SDS011;50314;50.618;10.642;2022-12-18T13:19:50;47.10;;;41.85;;
64063;SDS011;50314;50.618;10.642;2022-12-18T13:22:50;51.17;;;44.15;;
64063;SDS011;50314;50.618;10.642;2022-12-18T13:25:33;50.80;;;45.40;;
64063;SDS011;50314;50.618;10.642;2022-12-18T13:28:04;55.33;;;48.97;;
64063;SDS011;50314;50.618;10.642;2022-12-18T13:46:05;85.43;;;77.20;;
64063;SDS011;50314;50.618;10.642;2022-12-18T13:48:48;89.85;;;81.68;;
64063;SDS011;50314;50.618;10.642;2022-12-18T13:51:34;95.50;;;86.85;;
64063;SDS011;50314;50.618;10.642;2022-12-18T13:56:58;86.22;;;78.65;;
64063;SDS011;50314;50.618;10.642;2022-12-18T13:59:24;91.38;;;83.40;;
64063;SDS011;50314;50.618;10.642;2022-12-18T14:01:55;95.43;;;87.20;;
64063;SDS011;50314;50.618;10.642;2022-12-18T14:04:30;96.90;;;88.40;;
64063;SDS011;50314;50.618;10.642;2022-12-18T14:07:01;99.70;;;91.28;;
64063;SDS011;50314;50.618;10.642;2022-12-18T14:09:43;87.47;;;79.82;;
64063;SDS011;50314;50.618;10.642;2022-12-18T14:12:18;91.10;;;83.22;;
64063;SDS011;50314;50.618;10.642;2022-12-18T14:15:06;89.88;;;82.18;;
64063;SDS011;50314;50.618;10.642;2022-12-18T14:17:46;81.05;;;73.95;;
64063;SDS011;50314;50.618;10.642;2022-12-18T14:20:13;79.97;;;73.20;;
64063;SDS011;50314;50.618;10.642;2022-12-18T14:22:42;67.20;;;61.33;;
64063;SDS011;50314;50.618;10.642;2022-12-18T14:27:44;60.35;;;55.15;;
64063;SDS011;50314;50.618;10.642;2022-12-18T14:33:18;57.90;;;52.75;;
64063;SDS011;50314;50.618;10.642;2022-12-18T14:35:53;58.03;;;52.92;;
64063;SDS011;50314;50.618;10.642;2022-12-18T14:40:52;66.03;;;59.90;;
64063;SDS011;50314;50.618;10.642;2022-12-18T14:43:39;71.13;;;64.30;;
64063;SDS011;50314;50.618;10.642;2022-12-18T14:46:06;74.03;;;66.90;;
64063;SDS011;50314;50.618;10.642;2022-12-18T14:48:52;76.55;;;68.93;;
64063;SDS011;50314;50.618;10.642;2022-12-18T14:51:19;81.97;;;73.85;;
64063;SDS011;50314;50.618;10.642;2022-12-18T14:53:48;85.18;;;76.60;;
64063;SDS011;50314;50.618;10.642;2022-12-18T14:56:23;84.72;;;75.78;;
64063;SDS011;50314;50.618;10.642;2022-12-18T14:58:55;87.68;;;78.45;;
64063;SDS011;50314;50.618;10.642;2022-12-18T15:09:42;83.30;;;73.35;;
64063;SDS011;50314;50.618;10.642;2022-12-18T15:20:46;110.82;;;91.78;;
64063;SDS011;50314;50.618;10.642;2022-12-18T15:23:34;109.35;;;90.05;;
64063;SDS011;50314;50.618;10.642;2022-12-18T15:26:12;107.57;;;88.15;;
64063;SDS011;50314;50.618;10.642;2022-12-18T15:33:45;107.13;;;84.97;;
64063;SDS011;50314;50.618;10.642;2022-12-18T15:36:28;102.32;;;78.57;;
64063;SDS011;50314;50.618;10.642;2022-12-18T15:41:21;92.45;;;73.10;;
64063;SDS011;50314;50.618;10.642;2022-12-18T15:43:47;92.70;;;71.63;;
64063;SDS011;50314;50.618;10.642;2022-12-18T15:46:18;95.85;;;74.25;;
64063;SDS011;50314;50.618;10.642;2022-12-18T15:48:52;98.65;;;74.75;;
64063;SDS011;50314;50.618;10.642;2022-12-18T15:51:20;94.80;;;73.25;;
64063;SDS011;50314;50.618;10.642;2022-12-18T15:53:49;97.20;;;73.53;;
64063;SDS011;50314;50.618;10.642;2022-12-18T15:56:17;92.25;;;71.28;;
64063;SDS011;50314;50.618;10.642;2022-12-18T15:59:04;94.15;;;71.50;;
64063;SDS011;50314;50.618;10.642;2022-12-18T16:01:36;91.82;;;68.75;;
64063;SDS011;50314;50.618;10.642;2022-12-18T16:04:02;88.97;;;67.97;;
64063;SDS011;50314;50.618;10.642;2022-12-18T16:06:27;86.70;;;65.28;;
64063;SDS011;50314;50.618;10.642;2022-12-18T16:08:52;86.55;;;66.20;;
64063;SDS011;50314;50.618;10.642;2022-12-18T16:11:25;81.60;;;61.10;;
64063;SDS011;50314;50.618;10.642;2022-12-18T16:16:45;79.03;;;57.97;;
64063;SDS011;50314;50.618;10.642;2022-12-18T16:19:12;74.50;;;54.47;;
64063;SDS011;50314;50.618;10.642;2022-12-18T16:21:38;74.65;;;54.72;;
64063;SDS011;50314;50.618;10.642;2022-12-18T16:24:04;74.30;;;55.03;;
64063;SDS011;50314;50.618;10.642;2022-12-18T16:26:32;70.18;;;51.40;;
64063;SDS011;50314;50.618;10.642;2022-12-18T16:28:58;63.97;;;47.88;;
64063;SDS011;50314;50.618;10.642;2022-12-18T16:31:23;58.58;;;42.03;;
64063;SDS011;50314;50.618;10.642;2022-12-18T16:33:49;56.10;;;42.33;;
64063;SDS011;50314;50.618;10.642;2022-12-18T16:36:14;54.08;;;40.10;;
64063;SDS011;50314;50.618;10.642;2022-12-18T16:38:40;50.35;;;38.05;;
64063;SDS011;50314;50.618;10.642;2022-12-18T16:41:15;49.53;;;36.92;;
64063;SDS011;50314;50.618;10.642;2022-12-18T16:43:56;49.17;;;37.22;;
64063;SDS011;50314;50.618;10.642;2022-12-18T16:46:21;47.22;;;36.42;;
64063;SDS011;50314;50.618;10.642;2022-12-18T16:48:47;45.85;;;34.20;;
64063;SDS011;50314;50.618;10.642;2022-12-18T16:51:12;47.78;;;37.90;;
64063;SDS011;50314;50.618;10.642;2022-12-18T16:53:38;46.70;;;36.63;;
64063;SDS011;50314;50.618;10.642;2022-12-18T16:56:03;45.10;;;37.40;;
64063;SDS011;50314;50.618;10.642;2022-12-18T16:58:29;45.70;;;38.25;;
64063;SDS011;50314;50.618;10.642;2022-12-18T17:00:54;44.17;;;39.05;;
64063;SDS011;50314;50.618;10.642;2022-12-18T17:03:20;44.10;;;37.22;;
64063;SDS011;50314;50.618;10.642;2022-12-18T17:05:45;40.15;;;35.85;;
64063;SDS011;50314;50.618;10.642;2022-12-18T17:08:11;37.03;;;33.03;;